sensor_id;sensor_type;location;lat;lon;timestamp;pressure;altitude;pressure_sealevel;temperature;humidity
37610;BME280;23457;51.966;8.230;2023-02-01T00:02:14;101072.34;;;5.06;100.00
37610;BME280;23457;51.966;8.230;2023-02-01T00:04:41;101065.19;;;5.20;100.00
37610;BME280;23457;51.966;8.230;2023-02-01T00:07:07;101055.59;;;5.36;100.00
37610;BME280;23457;51.966;8.230;2023-02-01T00:09:34;101056.03;;;5.26;100.00
37610;BME280;23457;51.966;8.230;2023-02-01T00:12:01;101047.47;;;5.27;100.00
37610;BME280;23457;51.966;8.230;2023-02-01T00:14:29;101045.28;;;5.16;100.00
37610;BME280;23457;51.966;8.230;2023-02-01T00:16:55;101046.69;;;5.09;100.00
37610;BME280;23457;51.966;8.230;2023-02-01T00:19:22;101055.47;;;4.93;100.00
37610;BME280;23457;51.966;8.230;2023-02-01T00:21:49;101053.47;;;5.07;100.00
37610;BME280;23457;51.966;8.230;2023-02-01T00:24:15;101067.56;;;4.96;100.00
37610;BME280;23457;51.966;8.230;2023-02-01T00:26:44;101061.00;;;5.02;100.00
37610;BME280;23457;51.966;8.230;2023-02-01T00:29:14;101069.59;;;4.84;100.00
37610;BME280;23457;51.966;8.230;2023-02-01T00:31:42;101063.22;;;5.14;100.00
37610;BME280;23457;51.966;8.230;2023-02-01T00:34:15;101057.47;;;5.00;100.00
37610;BME280;23457;51.966;8.230;2023-02-01T00:36:43;101054.88;;;5.20;100.00
37610;BME280;23457;51.966;8.230;2023-02-01T00:39:10;101044.56;;;5.20;100.00
37610;BME280;23457;51.966;8.230;2023-02-01T00:41:37;101040.06;;;4.95;100.00
37610;BME280;23457;51.966;8.230;2023-02-01T00:44:04;101041.00;;;4.97;100.00
37610;BME280;23457;51.966;8.230;2023-02-01T00:46:30;101038.69;;;4.84;100.00
37610;BME280;23457;51.966;8.230;2023-02-01T00:48:57;101037.47;;;4.95;100.00
37610;BME280;23457;51.966;8.230;2023-02-01T00:51:27;101032.75;;;5.04;100.00
37610;BME280;23457;51.966;8.230;2023-02-01T00:53:54;101033.69;;;4.87;100.00
37610;BME280;23457;51.966;8.230;2023-02-01T00:56:21;101039.16;;;4.94;100.00
37610;BME280;23457;51.966;8.230;2023-02-01T00:58:48;101040.56;;;5.07;100.00
37610;BME280;23457;51.966;8.230;2023-02-01T01:01:16;101051.31;;;4.97;100.00
37610;BME280;23457;51.966;8.230;2023-02-01T01:03:46;101044.53;;;5.18;100.00
37610;BME280;23457;51.966;8.230;2023-02-01T01:06:15;101036.72;;;4.97;100.00
37610;BME280;23457;51.966;8.230;2023-02-01T01:08:43;101041.56;;;4.90;100.00
37610;BME280;23457;51.966;8.230;2023-02-01T01:11:12;101034.38;;;5.02;100.00
37610;BME280;23457;51.966;8.230;2023-02-01T01:13:40;101037.38;;;4.92;100.00
37610;BME280;23457;51.966;8.230;2023-02-01T01:16:08;101026.50;;;4.99;100.00
37610;BME280;23457;51.966;8.230;2023-02-01T01:18:36;101024.06;;;5.02;100.00
37610;BME280;23457;51.966;8.230;2023-02-01T01:21:08;101017.53;;;5.10;100.00
37610;BME280;23457;51.966;8.230;2023-02-01T01:23:36;101029.34;;;5.05;100.00
37610;BME280;23457;51.966;8.230;2023-02-01T01:26:07;101032.31;;;5.14;100.00
37610;BME280;23457;51.966;8.230;2023-02-01T01:28:35;101032.38;;;5.16;100.00
37610;BME280;23457;51.966;8.230;2023-02-01T01:31:02;101037.19;;;5.27;100.00
37610;BME280;23457;51.966;8.230;2023-02-01T01:33:29;101031.88;;;5.24;100.00
37610;BME280;23457;51.966;8.230;2023-02-01T01:35:56;101038.19;;;5.31;100.00
37610;BME280;23457;51.966;8.230;2023-02-01T01:38:23;101038.13;;;5.29;100.00
37610;BME280;23457;51.966;8.230;2023-02-01T01:40:49;101045.34;;;5.17;100.00
37610;BME280;23457;51.966;8.230;2023-02-01T01:43:19;101048.44;;;5.29;100.00
37610;BME280;23457;51.966;8.230;2023-02-01T01:45:50;101043.34;;;5.52;100.00
37610;BME280;23457;51.966;8.230;2023-02-01T01:48:22;101041.81;;;5.36;100.00
37610;BME280;23457;51.966;8.230;2023-02-01T01:51:05;101035.78;;;5.35;100.00
37610;BME280;23457;51.966;8.230;2023-02-01T01:53:43;101036.81;;;5.39;100.00
37610;BME280;23457;51.966;8.230;2023-02-01T01:56:12;101036.50;;;5.31;100.00
37610;BME280;23457;51.966;8.230;2023-02-01T01:58:39;101021.66;;;5.47;100.00
37610;BME280;23457;51.966;8.230;2023-02-01T02:01:06;101008.75;;;5.47;100.00
37610;BME280;23457;51.966;8.230;2023-02-01T02:03:39;101013.81;;;5.44;100.00
37610;BME280;23457;51.966;8.230;2023-02-01T02:06:14;101002.91;;;5.51;100.00
37610;BME280;23457;51.966;8.230;2023-02-01T02:08:41;100993.41;;;5.50;100.00
37610;BME280;23457;51.966;8.230;2023-02-01T02:11:11;100988.53;;;5.56;100.00
37610;BME280;23457;51.966;8.230;2023-02-01T02:13:38;100988.63;;;5.59;100.00
37610;BME280;23457;51.966;8.230;2023-02-01T02:24:49;100971.97;;;5.51;100.00
37610;BME280;23457;51.966;8.230;2023-02-01T02:30:34;100978.09;;;5.53;100.00
37610;BME280;23457;51.966;8.230;2023-02-01T02:41:18;100947.53;;;5.41;100.00
37610;BME280;23457;51.966;8.230;2023-02-01T02:44:47;100947.16;;;5.53;100.00
37610;BME280;23457;51.966;8.230;2023-02-01T02:50:28;100939.09;;;5.45;100.00
37610;BME280;23457;51.966;8.230;2023-02-01T02:53:18;100941.66;;;5.66;100.00
37610;BME280;23457;51.966;8.230;2023-02-01T02:56:06;100933.44;;;5.54;100.00
37610;BME280;23457;51.966;8.230;2023-02-01T02:58:52;100929.66;;;5.46;100.00
37610;BME280;23457;51.966;8.230;2023-02-01T03:01:39;100928.75;;;5.66;99.96
37610;BME280;23457;51.966;8.230;2023-02-01T03:04:25;100931.47;;;5.69;99.29
37610;BME280;23457;51.966;8.230;2023-02-01T03:06:53;100924.22;;;5.60;99.61
37610;BME280;23457;51.966;8.230;2023-02-01T03:09:31;100920.22;;;5.67;99.11
37610;BME280;23457;51.966;8.230;2023-02-01T03:12:09;100923.00;;;5.51;99.21
37610;BME280;23457;51.966;8.230;2023-02-01T03:15:05;100922.06;;;5.71;98.33
37610;BME280;23457;51.966;8.230;2023-02-01T03:17:39;100923.25;;;5.79;97.72
37610;BME280;23457;51.966;8.230;2023-02-01T03:20:10;100918.44;;;5.66;97.70
37610;BME280;23457;51.966;8.230;2023-02-01T03:22:41;100910.78;;;5.67;97.87
37610;BME280;23457;51.966;8.230;2023-02-01T03:25:22;100908.25;;;5.69;98.15
37610;BME280;23457;51.966;8.230;2023-02-01T03:27:56;100903.44;;;5.78;97.37
37610;BME280;23457;51.966;8.230;2023-02-01T03:30:31;100910.50;;;5.82;97.33
37610;BME280;23457;51.966;8.230;2023-02-01T03:33:02;100887.84;;;5.53;98.38
37610;BME280;23457;51.966;8.230;2023-02-01T03:35:41;100885.63;;;5.62;98.60
37610;BME280;23457;51.966;8.230;2023-02-01T03:38:33;100886.91;;;5.73;97.75
37610;BME280;23457;51.966;8.230;2023-02-01T03:43:43;100884.41;;;5.52;98.28
37610;BME280;23457;51.966;8.230;2023-02-01T03:46:17;100879.91;;;5.69;98.02
37610;BME280;23457;51.966;8.230;2023-02-01T03:48:48;100882.56;;;5.72;97.73
37610;BME280;23457;51.966;8.230;2023-02-01T03:51:18;100882.03;;;5.58;97.44
37610;BME280;23457;51.966;8.230;2023-02-01T03:53:47;100879.47;;;5.81;96.89
37610;BME280;23457;51.966;8.230;2023-02-01T03:56:18;100878.94;;;5.67;96.96
37610;BME280;23457;51.966;8.230;2023-02-01T03:58:45;100879.09;;;5.71;97.28
37610;BME280;23457;51.966;8.230;2023-02-01T04:01:30;100871.75;;;5.81;96.92
37610;BME280;23457;51.966;8.230;2023-02-01T04:03:58;100877.53;;;5.75;97.22
37610;BME280;23457;51.966;8.230;2023-02-01T04:06:25;100870.34;;;5.66;97.28
37610;BME280;23457;51.966;8.230;2023-02-01T04:08:56;100870.75;;;5.77;97.40
37610;BME280;23457;51.966;8.230;2023-02-01T04:11:23;100867.47;;;5.81;96.79
37610;BME280;23457;51.966;8.230;2023-02-01T04:13:49;100870.84;;;5.80;97.29
37610;BME280;23457;51.966;8.230;2023-02-01T04:16:16;100863.19;;;5.82;96.87
37610;BME280;23457;51.966;8.230;2023-02-01T04:18:43;100860.75;;;5.86;96.64
37610;BME280;23457;51.966;8.230;2023-02-01T04:21:09;100859.81;;;5.84;96.72
37610;BME280;23457;51.966;8.230;2023-02-01T04:23:36;100859.59;;;6.00;96.76
37610;BME280;23457;51.966;8.230;2023-02-01T04:26:04;100859.38;;;5.94;95.83
37610;BME280;23457;51.966;8.230;2023-02-01T04:28:31;100847.84;;;5.86;96.25
37610;BME280;23457;51.966;8.230;2023-02-01T04:30:58;100849.84;;;5.92;96.75
37610;BME280;23457;51.966;8.230;2023-02-01T04:33:25;100846.03;;;5.84;96.43
37610;BME280;23457;51.966;8.230;2023-02-01T04:35:51;100842.34;;;5.99;96.41
37610;BME280;23457;51.966;8.230;2023-02-01T04:38:18;100848.63;;;6.06;96.44
37610;BME280;23457;51.966;8.230;2023-02-01T04:40:47;100855.81;;;5.91;96.61
37610;BME280;23457;51.966;8.230;2023-02-01T04:43:14;100842.31;;;5.75;97.44
37610;BME280;23457;51.966;8.230;2023-02-01T04:45:40;100848.88;;;5.90;98.30
37610;BME280;23457;51.966;8.230;2023-02-01T04:48:07;100841.88;;;5.87;98.39
37610;BME280;23457;51.966;8.230;2023-02-01T04:50:34;100836.56;;;6.05;98.58
37610;BME280;23457;51.966;8.230;2023-02-01T04:53:01;100839.66;;;5.74;99.87
37610;BME280;23457;51.966;8.230;2023-02-01T04:55:28;100841.75;;;5.84;100.00
37610;BME280;23457;51.966;8.230;2023-02-01T04:57:54;100845.44;;;5.89;100.00
37610;BME280;23457;51.966;8.230;2023-02-01T05:00:21;100835.78;;;5.85;100.00
37610;BME280;23457;51.966;8.230;2023-02-01T05:02:48;100825.84;;;5.72;100.00
37610;BME280;23457;51.966;8.230;2023-02-01T05:05:15;100825.94;;;5.75;100.00
37610;BME280;23457;51.966;8.230;2023-02-01T05:07:42;100834.38;;;5.71;100.00
37610;BME280;23457;51.966;8.230;2023-02-01T05:10:09;100829.22;;;5.71;100.00
37610;BME280;23457;51.966;8.230;2023-02-01T05:12:36;100832.75;;;5.73;100.00
37610;BME280;23457;51.966;8.230;2023-02-01T05:15:21;100845.16;;;5.83;100.00
37610;BME280;23457;51.966;8.230;2023-02-01T05:17:48;100831.81;;;5.71;100.00
37610;BME280;23457;51.966;8.230;2023-02-01T05:20:15;100829.50;;;5.55;100.00
37610;BME280;23457;51.966;8.230;2023-02-01T05:22:42;100827.47;;;5.70;100.00
37610;BME280;23457;51.966;8.230;2023-02-01T05:25:08;100819.78;;;5.71;100.00
37610;BME280;23457;51.966;8.230;2023-02-01T05:27:35;100818.00;;;5.69;100.00
37610;BME280;23457;51.966;8.230;2023-02-01T05:30:04;100812.00;;;5.70;100.00
37610;BME280;23457;51.966;8.230;2023-02-01T05:32:31;100809.72;;;5.78;100.00
37610;BME280;23457;51.966;8.230;2023-02-01T05:34:58;100808.16;;;5.59;100.00
37610;BME280;23457;51.966;8.230;2023-02-01T05:37:24;100809.41;;;5.70;100.00
37610;BME280;23457;51.966;8.230;2023-02-01T05:39:51;100810.16;;;5.66;100.00
37610;BME280;23457;51.966;8.230;2023-02-01T05:42:18;100799.16;;;5.71;100.00
37610;BME280;23457;51.966;8.230;2023-02-01T05:44:45;100794.75;;;5.67;100.00
37610;BME280;23457;51.966;8.230;2023-02-01T05:47:11;100797.66;;;5.76;100.00
37610;BME280;23457;51.966;8.230;2023-02-01T05:49:39;100795.94;;;5.77;100.00
37610;BME280;23457;51.966;8.230;2023-02-01T05:52:05;100782.81;;;5.71;100.00
37610;BME280;23457;51.966;8.230;2023-02-01T05:54:32;100789.84;;;5.75;100.00
37610;BME280;23457;51.966;8.230;2023-02-01T05:56:58;100789.16;;;5.79;100.00
37610;BME280;23457;51.966;8.230;2023-02-01T05:59:25;100794.50;;;5.85;100.00
37610;BME280;23457;51.966;8.230;2023-02-01T06:01:52;100799.09;;;5.70;100.00
37610;BME280;23457;51.966;8.230;2023-02-01T06:04:18;100810.94;;;5.87;100.00
37610;BME280;23457;51.966;8.230;2023-02-01T06:06:45;100805.19;;;5.72;100.00
37610;BME280;23457;51.966;8.230;2023-02-01T06:09:12;100791.97;;;5.63;100.00
37610;BME280;23457;51.966;8.230;2023-02-01T06:11:39;100784.56;;;5.72;100.00
37610;BME280;23457;51.966;8.230;2023-02-01T06:14:06;100796.53;;;5.70;100.00
37610;BME280;23457;51.966;8.230;2023-02-01T06:16:34;100797.97;;;5.86;100.00
37610;BME280;23457;51.966;8.230;2023-02-01T06:19:00;100802.81;;;5.76;100.00
37610;BME280;23457;51.966;8.230;2023-02-01T06:21:27;100796.13;;;5.82;100.00
37610;BME280;23457;51.966;8.230;2023-02-01T06:23:54;100807.69;;;5.69;100.00
37610;BME280;23457;51.966;8.230;2023-02-01T06:26:21;100802.81;;;5.76;100.00
37610;BME280;23457;51.966;8.230;2023-02-01T06:28:47;100796.22;;;5.85;100.00
37610;BME280;23457;51.966;8.230;2023-02-01T06:31:15;100797.72;;;5.78;100.00
37610;BME280;23457;51.966;8.230;2023-02-01T06:33:42;100805.75;;;5.87;100.00
37610;BME280;23457;51.966;8.230;2023-02-01T06:36:10;100804.13;;;5.65;100.00
37610;BME280;23457;51.966;8.230;2023-02-01T06:38:38;100812.91;;;5.93;100.00
37610;BME280;23457;51.966;8.230;2023-02-01T06:41:05;100821.03;;;5.81;99.85
37610;BME280;23457;51.966;8.230;2023-02-01T06:43:32;100814.19;;;5.82;100.00
37610;BME280;23457;51.966;8.230;2023-02-01T06:46:03;100823.16;;;5.91;99.95
37610;BME280;23457;51.966;8.230;2023-02-01T06:48:30;100824.31;;;5.99;98.56
37610;BME280;23457;51.966;8.230;2023-02-01T06:50:57;100827.00;;;5.80;100.00
37610;BME280;23457;51.966;8.230;2023-02-01T06:53:24;100834.97;;;5.86;99.83
37610;BME280;23457;51.966;8.230;2023-02-01T06:55:55;100845.63;;;5.94;99.89
37610;BME280;23457;51.966;8.230;2023-02-01T06:58:22;100833.13;;;5.82;100.00
37610;BME280;23457;51.966;8.230;2023-02-01T07:00:49;100842.22;;;5.95;99.86
37610;BME280;23457;51.966;8.230;2023-02-01T07:03:16;100828.75;;;6.03;99.82
37610;BME280;23457;51.966;8.230;2023-02-01T07:05:43;100836.50;;;5.81;100.00
37610;BME280;23457;51.966;8.230;2023-02-01T07:08:10;100843.13;;;5.97;99.71
37610;BME280;23457;51.966;8.230;2023-02-01T07:10:37;100843.78;;;5.91;100.00
37610;BME280;23457;51.966;8.230;2023-02-01T07:13:04;100835.13;;;5.89;100.00
37610;BME280;23457;51.966;8.230;2023-02-01T07:15:30;100842.84;;;5.89;100.00
37610;BME280;23457;51.966;8.230;2023-02-01T07:17:57;100844.47;;;5.87;100.00
37610;BME280;23457;51.966;8.230;2023-02-01T07:20:23;100847.78;;;5.85;99.84
37610;BME280;23457;51.966;8.230;2023-02-01T07:22:57;100855.75;;;5.89;100.00
37610;BME280;23457;51.966;8.230;2023-02-01T07:25:24;100854.44;;;6.00;99.01
37610;BME280;23457;51.966;8.230;2023-02-01T07:27:50;100859.28;;;5.91;99.61
37610;BME280;23457;51.966;8.230;2023-02-01T07:30:17;100864.16;;;5.85;100.00
37610;BME280;23457;51.966;8.230;2023-02-01T07:32:44;100873.94;;;5.92;100.00
37610;BME280;23457;51.966;8.230;2023-02-01T07:35:11;100871.44;;;5.95;100.00
37610;BME280;23457;51.966;8.230;2023-02-01T07:37:38;100880.06;;;5.96;100.00
37610;BME280;23457;51.966;8.230;2023-02-01T07:40:06;100865.47;;;5.96;99.86
37610;BME280;23457;51.966;8.230;2023-02-01T07:42:33;100875.84;;;5.98;100.00
37610;BME280;23457;51.966;8.230;2023-02-01T07:45:00;100871.69;;;6.01;99.68
37610;BME280;23457;51.966;8.230;2023-02-01T07:47:46;100875.78;;;5.96;100.00
37610;BME280;23457;51.966;8.230;2023-02-01T07:50:13;100896.16;;;6.13;99.86
37610;BME280;23457;51.966;8.230;2023-02-01T07:52:40;100889.91;;;6.06;99.11
37610;BME280;23457;51.966;8.230;2023-02-01T07:55:07;100893.84;;;5.96;99.98
37610;BME280;23457;51.966;8.230;2023-02-01T07:57:34;100885.06;;;5.91;100.00
37610;BME280;23457;51.966;8.230;2023-02-01T08:00:01;100893.19;;;5.80;100.00
37610;BME280;23457;51.966;8.230;2023-02-01T08:02:46;100886.09;;;5.74;100.00
37610;BME280;23457;51.966;8.230;2023-02-01T08:05:13;100887.97;;;5.78;100.00
37610;BME280;23457;51.966;8.230;2023-02-01T08:07:39;100875.78;;;5.96;100.00
37610;BME280;23457;51.966;8.230;2023-02-01T08:10:06;100893.06;;;5.99;100.00
37610;BME280;23457;51.966;8.230;2023-02-01T08:12:38;100895.84;;;6.03;100.00
37610;BME280;23457;51.966;8.230;2023-02-01T08:15:05;100899.44;;;6.08;100.00
37610;BME280;23457;51.966;8.230;2023-02-01T08:17:32;100905.06;;;6.21;100.00
37610;BME280;23457;51.966;8.230;2023-02-01T08:19:58;100893.72;;;6.16;100.00
37610;BME280;23457;51.966;8.230;2023-02-01T08:22:25;100896.78;;;6.29;100.00
37610;BME280;23457;51.966;8.230;2023-02-01T08:24:51;100902.94;;;6.33;99.76
37610;BME280;23457;51.966;8.230;2023-02-01T08:27:27;100905.22;;;6.25;99.58
37610;BME280;23457;51.966;8.230;2023-02-01T08:29:54;100891.44;;;6.25;99.85
37610;BME280;23457;51.966;8.230;2023-02-01T08:32:20;100898.16;;;6.20;99.32
37610;BME280;23457;51.966;8.230;2023-02-01T08:34:47;100896.09;;;6.35;99.07
37610;BME280;23457;51.966;8.230;2023-02-01T08:37:14;100905.28;;;6.27;98.94
37610;BME280;23457;51.966;8.230;2023-02-01T08:39:40;100907.06;;;6.28;99.16
37610;BME280;23457;51.966;8.230;2023-02-01T08:42:12;100908.56;;;6.23;99.42
37610;BME280;23457;51.966;8.230;2023-02-01T08:45:11;100907.47;;;6.64;97.74
37610;BME280;23457;51.966;8.230;2023-02-01T08:47:38;100916.56;;;6.53;97.57
37610;BME280;23457;51.966;8.230;2023-02-01T08:50:05;100904.22;;;6.44;98.20
37610;BME280;23457;51.966;8.230;2023-02-01T08:52:32;100913.91;;;6.51;98.17
37610;BME280;23457;51.966;8.230;2023-02-01T08:54:59;100914.84;;;6.53;97.00
37610;BME280;23457;51.966;8.230;2023-02-01T08:57:25;100917.31;;;6.50;98.76
37610;BME280;23457;51.966;8.230;2023-02-01T08:59:53;100900.88;;;6.48;97.78
37610;BME280;23457;51.966;8.230;2023-02-01T09:02:20;100917.69;;;6.61;97.64
37610;BME280;23457;51.966;8.230;2023-02-01T09:04:47;100906.84;;;6.45;97.24
37610;BME280;23457;51.966;8.230;2023-02-01T09:07:13;100914.34;;;6.63;96.86
37610;BME280;23457;51.966;8.230;2023-02-01T09:09:40;100898.66;;;6.57;97.13
37610;BME280;23457;51.966;8.230;2023-02-01T09:12:07;100899.66;;;6.62;96.65
37610;BME280;23457;51.966;8.230;2023-02-01T09:14:33;100906.22;;;6.53;96.80
37610;BME280;23457;51.966;8.230;2023-02-01T09:17:00;100904.41;;;6.50;96.93
37610;BME280;23457;51.966;8.230;2023-02-01T09:19:27;100902.41;;;6.67;95.61
37610;BME280;23457;51.966;8.230;2023-02-01T09:21:53;100892.44;;;6.52;96.67
37610;BME280;23457;51.966;8.230;2023-02-01T09:24:20;100896.97;;;6.59;96.02
37610;BME280;23457;51.966;8.230;2023-02-01T09:26:47;100886.97;;;6.68;95.44
37610;BME280;23457;51.966;8.230;2023-02-01T09:29:14;100893.38;;;6.79;95.01
37610;BME280;23457;51.966;8.230;2023-02-01T09:31:41;100881.06;;;6.72;95.34
37610;BME280;23457;51.966;8.230;2023-02-01T09:34:15;100886.34;;;6.75;95.68
37610;BME280;23457;51.966;8.230;2023-02-01T09:36:42;100887.50;;;6.83;95.35
37610;BME280;23457;51.966;8.230;2023-02-01T09:39:08;100870.75;;;6.72;95.40
37610;BME280;23457;51.966;8.230;2023-02-01T09:47:16;100884.81;;;6.80;95.36
37610;BME280;23457;51.966;8.230;2023-02-01T09:52:40;100885.22;;;6.93;94.92
37610;BME280;23457;51.966;8.230;2023-02-01T09:55:16;100877.16;;;6.83;95.50
37610;BME280;23457;51.966;8.230;2023-02-01T09:57:59;100887.38;;;7.06;94.51
37610;BME280;23457;51.966;8.230;2023-02-01T10:00:34;100871.44;;;6.92;94.79
37610;BME280;23457;51.966;8.230;2023-02-01T10:03:02;100878.28;;;6.92;94.73
37610;BME280;23457;51.966;8.230;2023-02-01T10:11:45;100869.59;;;6.90;94.42
37610;BME280;23457;51.966;8.230;2023-02-01T10:17:01;100863.59;;;7.16;94.36
37610;BME280;23457;51.966;8.230;2023-02-01T10:22:10;100862.81;;;7.18;94.76
37610;BME280;23457;51.966;8.230;2023-02-01T10:24:41;100869.34;;;7.34;93.45
37610;BME280;23457;51.966;8.230;2023-02-01T10:29:43;100867.97;;;7.18;94.05
37610;BME280;23457;51.966;8.230;2023-02-01T10:32:19;100868.25;;;7.28;93.74
37610;BME280;23457;51.966;8.230;2023-02-01T10:34:55;100867.28;;;7.24;93.56
37610;BME280;23457;51.966;8.230;2023-02-01T10:37:31;100865.69;;;7.28;93.22
37610;BME280;23457;51.966;8.230;2023-02-01T10:40:20;100848.41;;;7.00;94.04
37610;BME280;23457;51.966;8.230;2023-02-01T10:42:51;100853.47;;;7.24;93.66
37610;BME280;23457;51.966;8.230;2023-02-01T10:45:22;100851.53;;;7.16;93.66
37610;BME280;23457;51.966;8.230;2023-02-01T10:47:52;100855.09;;;7.47;92.48
37610;BME280;23457;51.966;8.230;2023-02-01T10:50:35;100855.19;;;7.23;92.87
37610;BME280;23457;51.966;8.230;2023-02-01T10:53:16;100852.09;;;7.33;92.41
37610;BME280;23457;51.966;8.230;2023-02-01T10:58:25;100856.41;;;7.34;92.37
37610;BME280;23457;51.966;8.230;2023-02-01T11:00:55;100853.78;;;7.33;92.47
37610;BME280;23457;51.966;8.230;2023-02-01T11:05:56;100841.34;;;7.21;92.86
37610;BME280;23457;51.966;8.230;2023-02-01T11:08:23;100830.03;;;7.17;93.18
37610;BME280;23457;51.966;8.230;2023-02-01T11:11:02;100831.84;;;7.48;92.12
37610;BME280;23457;51.966;8.230;2023-02-01T11:13:37;100813.88;;;7.25;92.57
37610;BME280;23457;51.966;8.230;2023-02-01T11:16:05;100824.41;;;7.31;92.55
37610;BME280;23457;51.966;8.230;2023-02-01T11:18:36;100807.25;;;7.33;92.09
37610;BME280;23457;51.966;8.230;2023-02-01T11:21:05;100816.72;;;7.32;91.92
37610;BME280;23457;51.966;8.230;2023-02-01T11:23:33;100810.84;;;7.38;91.42
37610;BME280;23457;51.966;8.230;2023-02-01T11:26:02;100812.00;;;7.19;91.38
37610;BME280;23457;51.966;8.230;2023-02-01T11:28:35;100806.13;;;7.25;91.44
37610;BME280;23457;51.966;8.230;2023-02-01T11:31:09;100810.34;;;7.21;91.50
37610;BME280;23457;51.966;8.230;2023-02-01T11:33:38;100797.69;;;7.30;91.46
37610;BME280;23457;51.966;8.230;2023-02-01T11:36:10;100805.53;;;7.33;91.71
37610;BME280;23457;51.966;8.230;2023-02-01T11:42:13;100782.19;;;7.30;92.82
37610;BME280;23457;51.966;8.230;2023-02-01T11:44:42;100782.53;;;7.14;94.90
37610;BME280;23457;51.966;8.230;2023-02-01T11:47:22;100777.31;;;7.41;95.61
37610;BME280;23457;51.966;8.230;2023-02-01T11:49:52;100762.63;;;7.11;97.48
37610;BME280;23457;51.966;8.230;2023-02-01T11:53:01;100757.34;;;7.07;98.82
37610;BME280;23457;51.966;8.230;2023-02-01T12:38:53;100720.84;;;6.42;100.00
37610;BME280;23457;51.966;8.230;2023-02-01T12:41:32;100725.91;;;6.14;100.00
37610;BME280;23457;51.966;8.230;2023-02-01T12:44:12;100723.22;;;6.11;100.00
37610;BME280;23457;51.966;8.230;2023-02-01T12:46:58;100733.72;;;6.16;100.00
37610;BME280;23457;51.966;8.230;2023-02-01T12:49:38;100714.69;;;5.88;100.00
37610;BME280;23457;51.966;8.230;2023-02-01T12:52:15;100721.41;;;6.08;100.00
37610;BME280;23457;51.966;8.230;2023-02-01T12:54:53;100708.31;;;6.02;100.00
37610;BME280;23457;51.966;8.230;2023-02-01T12:57:27;100705.16;;;5.87;100.00
37610;BME280;23457;51.966;8.230;2023-02-01T13:02:55;100705.03;;;6.06;100.00
37610;BME280;23457;51.966;8.230;2023-02-01T13:06:20;100707.69;;;6.09;100.00
37610;BME280;23457;51.966;8.230;2023-02-01T13:08:24;100702.94;;;5.96;100.00
37610;BME280;23457;51.966;8.230;2023-02-01T13:11:00;100678.69;;;6.17;100.00
37610;BME280;23457;51.966;8.230;2023-02-01T13:13:52;100691.72;;;5.96;100.00
37610;BME280;23457;51.966;8.230;2023-02-01T13:16:35;100695.31;;;6.25;100.00
37610;BME280;23457;51.966;8.230;2023-02-01T13:19:16;100690.34;;;6.31;100.00
37610;BME280;23457;51.966;8.230;2023-02-01T13:21:51;100684.78;;;6.19;100.00
37610;BME280;23457;51.966;8.230;2023-02-01T13:24:30;100678.81;;;6.21;100.00
37610;BME280;23457;51.966;8.230;2023-02-01T13:26:59;100684.97;;;6.25;100.00
37610;BME280;23457;51.966;8.230;2023-02-01T13:29:28;100692.25;;;6.36;100.00
37610;BME280;23457;51.966;8.230;2023-02-01T13:43:06;100691.31;;;6.61;100.00
37610;BME280;23457;51.966;8.230;2023-02-01T13:45:37;100684.31;;;6.57;100.00
37610;BME280;23457;51.966;8.230;2023-02-01T13:48:19;100687.41;;;6.47;100.00
37610;BME280;23457;51.966;8.230;2023-02-01T13:50:51;100686.34;;;6.67;100.00
37610;BME280;23457;51.966;8.230;2023-02-01T13:53:27;100677.91;;;6.46;100.00
37610;BME280;23457;51.966;8.230;2023-02-01T13:56:03;100660.44;;;6.64;100.00
37610;BME280;23457;51.966;8.230;2023-02-01T13:58:35;100673.59;;;6.45;100.00
37610;BME280;23457;51.966;8.230;2023-02-01T14:03:56;100689.47;;;6.57;100.00
37610;BME280;23457;51.966;8.230;2023-02-01T14:19:34;100656.28;;;6.69;100.00
37610;BME280;23457;51.966;8.230;2023-02-01T14:22:30;100669.88;;;6.64;100.00
37610;BME280;23457;51.966;8.230;2023-02-01T14:24:56;100672.31;;;6.59;100.00
37610;BME280;23457;51.966;8.230;2023-02-01T14:27:26;100665.13;;;6.77;100.00
37610;BME280;23457;51.966;8.230;2023-02-01T14:29:59;100669.09;;;6.66;100.00
37610;BME280;23457;51.966;8.230;2023-02-01T14:32:33;100670.59;;;6.58;100.00
37610;BME280;23457;51.966;8.230;2023-02-01T14:35:02;100693.63;;;6.52;100.00
37610;BME280;23457;51.966;8.230;2023-02-01T14:37:37;100690.59;;;6.38;100.00
37610;BME280;23457;51.966;8.230;2023-02-01T14:40:16;100740.72;;;6.45;100.00
37610;BME280;23457;51.966;8.230;2023-02-01T14:42:53;100780.31;;;5.96;100.00
37610;BME280;23457;51.966;8.230;2023-02-01T14:50:33;100724.94;;;5.63;100.00
37610;BME280;23457;51.966;8.230;2023-02-01T14:59:00;100748.72;;;5.10;100.00
37610;BME280;23457;51.966;8.230;2023-02-01T15:01:32;100729.09;;;5.35;100.00
37610;BME280;23457;51.966;8.230;2023-02-01T15:04:09;100749.72;;;5.13;100.00
37610;BME280;23457;51.966;8.230;2023-02-01T15:06:39;100747.13;;;5.35;100.00
37610;BME280;23457;51.966;8.230;2023-02-01T15:09:19;100759.06;;;5.33;100.00
37610;BME280;23457;51.966;8.230;2023-02-01T15:12:17;100756.69;;;5.38;100.00
37610;BME280;23457;51.966;8.230;2023-02-01T15:14:48;100755.34;;;5.25;100.00
37610;BME280;23457;51.966;8.230;2023-02-01T15:17:30;100753.69;;;5.50;100.00
37610;BME280;23457;51.966;8.230;2023-02-01T15:20:15;100764.69;;;5.68;100.00
37610;BME280;23457;51.966;8.230;2023-02-01T15:23:05;100769.81;;;5.44;100.00
37610;BME280;23457;51.966;8.230;2023-02-01T15:25:36;100778.94;;;5.36;100.00
37610;BME280;23457;51.966;8.230;2023-02-01T15:28:05;100771.09;;;5.55;100.00
37610;BME280;23457;51.966;8.230;2023-02-01T15:30:34;100772.28;;;5.65;100.00
37610;BME280;23457;51.966;8.230;2023-02-01T15:33:15;100777.44;;;5.65;100.00
37610;BME280;23457;51.966;8.230;2023-02-01T15:35:43;100783.53;;;5.89;100.00
37610;BME280;23457;51.966;8.230;2023-02-01T15:41:14;100791.16;;;5.64;100.00